createdAt,value
2023-11-18T00:01:59.619Z,28.33
2023-11-18T00:04:31.990Z,21.67
2023-11-18T00:07:01.524Z,26.52
2023-11-18T00:12:05.393Z,24.55
2023-11-18T00:14:33.618Z,23.10
2023-11-18T00:17:04.208Z,28.13
2023-11-18T00:19:38.051Z,27.38
2023-11-18T00:22:07.802Z,41.47
2023-11-18T00:24:39.156Z,27.70
2023-11-18T00:27:08.462Z,44.15
2023-11-18T00:29:39.411Z,70.95
2023-11-18T00:32:09.692Z,28.75
2023-11-18T00:34:41.491Z,25.10
2023-11-18T00:37:11.076Z,26.35
2023-11-18T00:39:42.607Z,32.78
2023-11-18T00:42:12.554Z,27.92
2023-11-18T00:44:42.451Z,26.90
2023-11-18T00:49:41.340Z,19.80
2023-11-18T00:52:10.993Z,25.67
2023-11-18T00:57:10.281Z,23.05
2023-11-18T00:59:39.673Z,48.20
2023-11-18T01:02:09.722Z,21.80
2023-11-18T01:04:39.044Z,21.55
2023-11-18T01:07:08.041Z,26.88
2023-11-18T01:09:40.472Z,29.48
2023-11-18T01:12:12.212Z,22.75
2023-11-18T01:14:43.397Z,26.13
2023-11-18T01:17:12.227Z,32.75
2023-11-18T01:19:42.046Z,23.33
2023-11-18T01:22:13.024Z,23.67
2023-11-18T01:24:44.019Z,21.08
2023-11-18T01:27:14.174Z,20.38
2023-11-18T01:29:48.226Z,22.40
2023-11-18T01:32:20.410Z,20.67
2023-11-18T01:34:52.582Z,19.70
2023-11-18T01:37:24.362Z,17.52
2023-11-18T01:39:53.297Z,17.63
2023-11-18T01:42:23.503Z,14.73
2023-11-18T01:44:53.961Z,8.25
2023-11-18T01:47:22.931Z,8.05
2023-11-18T01:49:52.852Z,6.30
2023-11-18T01:52:23.247Z,5.57
2023-11-18T01:54:56.299Z,5.38
2023-11-18T01:57:28.125Z,5.13
2023-11-18T01:59:59.415Z,5.75
2023-11-18T02:02:28.878Z,5.15
2023-11-18T02:04:58.264Z,4.65
2023-11-18T02:07:27.531Z,5.28
2023-11-18T02:09:57.818Z,5.30
2023-11-18T02:12:35.590Z,4.97
2023-11-18T02:15:11.133Z,5.05
2023-11-18T02:17:41.875Z,5.25
2023-11-18T02:20:17.975Z,5.13
2023-11-18T02:25:20.063Z,5.07
2023-11-18T02:27:51.025Z,5.45
2023-11-18T02:30:21.924Z,5.47
2023-11-18T02:32:56.192Z,4.97
2023-11-18T02:35:31.047Z,5.15
2023-11-18T02:38:01.783Z,5.35
2023-11-18T02:40:36.818Z,4.78
2023-11-18T02:43:07.985Z,5.47
2023-11-18T02:45:38.501Z,5.20
2023-11-18T02:48:08.812Z,4.60
2023-11-18T02:50:38.158Z,4.70
2023-11-18T02:53:07.172Z,4.40
2023-11-18T02:55:36.815Z,4.57
2023-11-18T02:58:07.331Z,5.03
2023-11-18T03:00:36.512Z,5.22
2023-11-18T03:03:09.850Z,4.68
2023-11-18T03:05:39.267Z,4.38
2023-11-18T03:08:09.072Z,5.00
2023-11-18T03:10:39.526Z,5.13
2023-11-18T03:13:10.407Z,4.50
2023-11-18T03:15:42.686Z,4.53
2023-11-18T03:18:11.479Z,4.93
2023-11-18T03:20:42.172Z,4.28
2023-11-18T03:23:11.400Z,5.60
2023-11-18T03:25:44.820Z,5.65
2023-11-18T03:28:15.801Z,6.15
2023-11-18T03:30:44.983Z,7.05
2023-11-18T03:33:13.754Z,5.80
2023-11-18T03:35:44.397Z,7.72
2023-11-18T03:38:14.229Z,7.60
2023-11-18T03:40:43.717Z,6.63
2023-11-18T03:43:12.917Z,6.20
2023-11-18T03:45:46.280Z,6.85
2023-11-18T03:48:16.021Z,7.15
2023-11-18T03:50:45.533Z,9.00
2023-11-18T03:53:14.634Z,10.07
2023-11-18T03:55:43.752Z,7.90
2023-11-18T03:58:13.020Z,7.32
2023-11-18T04:00:42.273Z,7.72
2023-11-18T04:03:13.338Z,6.05
2023-11-18T04:05:42.644Z,6.45
2023-11-18T04:08:12.875Z,7.40
2023-11-18T04:10:45.093Z,7.68
2023-11-18T04:13:14.095Z,7.20
2023-11-18T04:15:43.376Z,6.72
2023-11-18T04:18:14.115Z,8.20
2023-11-18T04:20:43.841Z,6.53
2023-11-18T04:23:14.584Z,6.63
2023-11-18T04:25:46.207Z,6.80
2023-11-18T04:28:15.406Z,7.75
2023-11-18T04:30:46.937Z,7.28
2023-11-18T04:33:17.044Z,7.53
2023-11-18T04:35:48.421Z,7.80
2023-11-18T04:38:17.243Z,7.70
2023-11-18T04:40:47.100Z,7.25
2023-11-18T04:43:16.455Z,6.60
2023-11-18T04:45:46.231Z,7.63
2023-11-18T04:48:16.752Z,7.07
2023-11-18T04:50:46.488Z,7.45
2023-11-18T04:53:16.276Z,6.72
2023-11-18T04:55:46.142Z,6.53
2023-11-18T05:00:44.947Z,6.90
2023-11-18T05:03:14.348Z,7.95
2023-11-18T05:05:45.004Z,7.32
2023-11-18T05:08:22.233Z,8.32
2023-11-18T05:10:55.476Z,8.75
2023-11-18T05:13:24.573Z,7.47
2023-11-18T05:15:55.521Z,7.85
2023-11-18T05:18:26.766Z,8.45
2023-11-18T05:20:58.443Z,8.63
2023-11-18T05:23:27.151Z,7.47
2023-11-18T05:25:56.488Z,8.30
2023-11-18T05:28:25.702Z,8.20
2023-11-18T05:30:59.137Z,7.57
2023-11-18T05:33:29.189Z,7.30
2023-11-18T05:35:59.604Z,7.93
2023-11-18T05:38:33.293Z,7.38
2023-11-18T05:41:02.897Z,8.18
2023-11-18T05:43:38.326Z,8.75
2023-11-18T05:46:21.930Z,8.05
2023-11-18T05:48:52.243Z,9.15
2023-11-18T05:51:24.475Z,9.50
2023-11-18T05:53:54.271Z,9.30
2023-11-18T05:56:24.968Z,8.45
2023-11-18T05:58:55.734Z,8.93
2023-11-18T06:01:28.929Z,8.90
2023-11-18T06:03:58.379Z,8.65
2023-11-18T06:06:29.388Z,9.57
2023-11-18T06:09:06.110Z,9.95
2023-11-18T06:11:38.446Z,10.07
2023-11-18T06:14:09.865Z,10.50
2023-11-18T06:16:43.295Z,9.15
2023-11-18T06:19:12.848Z,11.10
2023-11-18T06:21:43.207Z,9.35
2023-11-18T06:24:14.245Z,9.15
2023-11-18T06:26:46.099Z,9.23
2023-11-18T06:29:16.211Z,9.65
2023-11-18T06:31:45.674Z,9.10
2023-11-18T06:34:15.187Z,9.32
2023-11-18T06:36:46.088Z,8.30
2023-11-18T06:39:15.184Z,9.60
2023-11-18T06:41:50.214Z,8.02
2023-11-18T06:44:24.999Z,8.60
2023-11-18T06:46:53.982Z,10.07
2023-11-18T06:49:23.136Z,9.30
2023-11-18T06:52:11.361Z,8.93
2023-11-18T06:54:43.596Z,11.38
2023-11-18T06:57:13.640Z,15.52
2023-11-18T06:59:42.410Z,9.90
2023-11-18T07:02:12.003Z,10.68
2023-11-18T07:04:41.467Z,11.50
2023-11-18T07:07:13.811Z,17.52
2023-11-18T07:09:42.986Z,13.20
2023-11-18T07:12:14.622Z,10.50
2023-11-18T07:14:43.344Z,8.45
2023-11-18T07:17:14.810Z,9.35
2023-11-18T07:19:45.474Z,9.38
2023-11-18T07:22:16.364Z,9.57
2023-11-18T07:24:45.246Z,11.98
2023-11-18T07:27:14.554Z,11.57
2023-11-18T07:32:15.185Z,10.07
2023-11-18T07:34:46.212Z,11.15
2023-11-18T07:37:17.850Z,8.68
2023-11-18T07:39:49.538Z,12.05
2023-11-18T07:42:19.317Z,9.60
2023-11-18T07:44:49.131Z,10.63
2023-11-18T07:47:18.260Z,10.15
2023-11-18T07:49:47.763Z,9.95
2023-11-18T07:52:18.630Z,11.43
2023-11-18T07:54:48.628Z,11.50
2023-11-18T07:57:19.629Z,10.48
2023-11-18T07:59:48.587Z,9.57
2023-11-18T08:02:18.371Z,9.43
2023-11-18T08:04:47.309Z,8.80
2023-11-18T08:07:18.027Z,8.57
2023-11-18T08:09:47.346Z,10.10
2023-11-18T08:12:16.601Z,9.05
2023-11-18T08:14:46.641Z,8.25
2023-11-18T08:17:15.888Z,7.72
2023-11-18T08:19:44.594Z,9.30
2023-11-18T08:22:14.989Z,9.57
2023-11-18T08:24:45.524Z,9.27
2023-11-18T08:27:14.868Z,9.10
2023-11-18T08:29:46.002Z,8.38
2023-11-18T08:32:16.064Z,7.95
2023-11-18T08:37:15.086Z,9.43
2023-11-18T08:39:45.267Z,12.77
2023-11-18T08:42:16.132Z,13.70
2023-11-18T08:44:49.487Z,12.43
2023-11-18T08:47:20.411Z,10.73
2023-11-18T08:49:49.389Z,10.85
2023-11-18T08:52:19.173Z,10.13
2023-11-18T08:55:03.205Z,10.07
2023-11-18T08:57:49.578Z,12.82
2023-11-18T09:00:40.354Z,12.88
2023-11-18T09:03:09.863Z,10.05
2023-11-18T09:05:39.488Z,10.05
2023-11-18T09:08:08.605Z,10.13
2023-11-18T09:10:39.620Z,9.35
2023-11-18T09:13:08.641Z,8.70
2023-11-18T09:15:38.612Z,9.40
2023-11-18T09:18:11.309Z,8.93
2023-11-18T09:20:41.444Z,8.85
2023-11-18T09:23:10.821Z,9.40
2023-11-18T09:25:42.811Z,12.82
2023-11-18T09:28:15.394Z,9.85
2023-11-18T09:30:51.338Z,25.23
2023-11-18T09:33:26.889Z,12.15
2023-11-18T09:35:59.844Z,9.02
2023-11-18T09:38:32.652Z,8.73
2023-11-18T09:41:08.508Z,7.93
2023-11-18T09:43:47.503Z,10.35
2023-11-18T09:46:17.909Z,9.75
2023-11-18T09:48:54.517Z,10.85
2023-11-18T09:51:25.100Z,9.27
2023-11-18T09:53:55.863Z,10.38
2023-11-18T09:56:40.086Z,9.55
2023-11-18T09:59:20.994Z,12.73
2023-11-18T10:01:55.656Z,11.57
2023-11-18T10:04:28.884Z,8.90
2023-11-18T10:06:58.168Z,9.55
2023-11-18T10:09:30.441Z,9.63
2023-11-18T10:12:06.866Z,8.93
2023-11-18T10:14:36.888Z,9.77
2023-11-18T10:17:16.210Z,9.10
2023-11-18T10:20:01.180Z,9.27
2023-11-18T10:22:33.747Z,8.73
2023-11-18T10:25:07.175Z,8.82
2023-11-18T10:27:37.274Z,8.98
2023-11-18T10:30:20.430Z,8.85
2023-11-18T10:33:06.519Z,8.50
2023-11-18T10:35:37.658Z,8.85
2023-11-18T10:38:07.652Z,9.00
2023-11-18T10:40:37.896Z,9.30
2023-11-18T10:43:11.384Z,10.23
2023-11-18T10:45:45.184Z,11.57
2023-11-18T10:48:17.779Z,12.20
2023-11-18T10:50:51.152Z,9.15
2023-11-18T10:53:22.981Z,10.25
2023-11-18T10:55:52.005Z,9.50
2023-11-18T10:58:22.098Z,10.52
2023-11-18T11:00:53.063Z,10.65
2023-11-18T11:03:24.972Z,10.90
2023-11-18T11:05:55.678Z,10.80
2023-11-18T11:08:35.770Z,10.23
2023-11-18T11:11:11.429Z,11.57
2023-11-18T11:13:42.958Z,12.65
2023-11-18T11:16:20.519Z,12.60
2023-11-18T11:18:56.037Z,12.00
2023-11-18T11:24:06.683Z,11.15
2023-11-18T11:26:52.746Z,12.77
2023-11-18T11:29:29.748Z,11.57
2023-11-18T11:32:14.955Z,11.13
2023-11-18T11:34:52.907Z,11.95
2023-11-18T11:37:28.292Z,10.43
2023-11-18T11:39:59.747Z,11.48
2023-11-18T11:42:31.811Z,13.00
2023-11-18T11:45:03.953Z,10.90
2023-11-18T11:47:38.290Z,11.65
2023-11-18T11:50:14.394Z,12.32
2023-11-18T11:52:50.220Z,12.48
2023-11-18T11:55:29.755Z,12.20
2023-11-18T11:58:00.144Z,14.90
2023-11-18T12:00:36.092Z,15.48
2023-11-18T12:03:06.401Z,13.70
2023-11-18T12:05:53.419Z,12.38
2023-11-18T12:08:26.725Z,12.05
2023-11-18T12:10:58.153Z,13.23
2023-11-18T12:13:27.851Z,13.00
2023-11-18T12:15:58.887Z,14.05
2023-11-18T12:18:35.492Z,13.30
2023-11-18T12:21:05.674Z,13.65
2023-11-18T12:23:36.069Z,13.48
2023-11-18T12:26:26.476Z,14.88
2023-11-18T12:28:57.026Z,15.15
2023-11-18T12:31:48.108Z,13.57
2023-11-18T12:34:18.262Z,12.15
2023-11-18T12:37:23.337Z,11.63
2023-11-18T12:40:26.043Z,10.95
2023-11-18T12:43:06.236Z,10.63
2023-11-18T12:45:46.375Z,11.88
2023-11-18T12:48:19.830Z,19.80
2023-11-18T12:50:49.901Z,21.65
2023-11-18T12:53:19.794Z,30.20
2023-11-18T12:55:50.812Z,21.98
2023-11-18T12:58:21.168Z,26.15
2023-11-18T13:00:51.340Z,32.63
2023-11-18T13:05:56.960Z,58.03
2023-11-18T13:08:26.107Z,15.80
2023-11-18T13:13:37.179Z,24.42
2023-11-18T13:16:11.225Z,9.48
2023-11-18T13:18:51.037Z,9.50
2023-11-18T13:21:23.828Z,29.33
2023-11-18T13:23:56.090Z,22.83
2023-11-18T13:26:25.904Z,58.63
2023-11-18T13:28:56.330Z,83.28
2023-11-18T13:31:25.774Z,43.58
2023-11-18T13:33:56.593Z,25.15
2023-11-18T13:36:26.157Z,11.55
2023-11-18T13:38:56.145Z,37.30
2023-11-18T13:41:32.373Z,16.17
2023-11-18T13:46:32.778Z,42.50
2023-11-18T13:49:07.239Z,23.95
2023-11-18T13:51:37.746Z,76.82
2023-11-18T13:54:07.946Z,41.25
2023-11-18T13:56:37.634Z,12.73
2023-11-18T13:59:11.094Z,19.60
2023-11-18T14:01:40.501Z,22.38
2023-11-18T14:04:12.638Z,44.08
2023-11-18T14:06:43.547Z,17.90
2023-11-18T14:09:13.022Z,26.33
2023-11-18T14:11:42.900Z,24.85
2023-11-18T14:14:14.914Z,36.85
2023-11-18T14:16:44.230Z,55.45
2023-11-18T14:19:14.664Z,81.63
2023-11-18T14:21:45.159Z,97.80
2023-11-18T14:24:18.320Z,27.42
2023-11-18T14:26:48.004Z,26.65
2023-11-18T14:29:19.489Z,25.90
2023-11-18T14:31:52.278Z,19.75
2023-11-18T14:34:22.620Z,29.45
2023-11-18T14:36:51.773Z,33.30
2023-11-18T14:39:24.311Z,29.80
2023-11-18T14:41:54.872Z,39.17
2023-11-18T14:44:27.092Z,19.60
2023-11-18T14:46:56.702Z,19.35
2023-11-18T14:49:29.581Z,20.58
2023-11-18T14:52:02.773Z,54.13
2023-11-18T14:54:37.101Z,24.92
2023-11-18T14:57:07.199Z,118.25
2023-11-18T15:02:18.593Z,18.58
2023-11-18T15:04:49.755Z,24.02
2023-11-18T15:07:19.211Z,24.35
2023-11-18T15:09:53.723Z,20.77
2023-11-18T15:12:25.583Z,19.67
2023-11-18T15:14:54.398Z,25.85
2023-11-18T15:17:37.938Z,20.38
2023-11-18T15:20:16.178Z,22.40
2023-11-18T15:22:45.541Z,21.00
2023-11-18T15:25:15.417Z,28.20
2023-11-18T15:27:47.366Z,23.70
2023-11-18T15:30:17.775Z,20.52
2023-11-18T15:32:48.184Z,31.73
2023-11-18T15:35:19.540Z,25.00
2023-11-18T15:37:49.659Z,24.67
2023-11-18T15:40:20.897Z,33.42
2023-11-18T15:42:51.670Z,22.08
2023-11-18T15:45:22.382Z,19.92
2023-11-18T15:47:51.949Z,27.90
2023-11-18T15:50:22.608Z,28.02
2023-11-18T15:52:53.685Z,29.60
2023-11-18T15:55:24.432Z,22.85
2023-11-18T15:57:55.466Z,23.55
2023-11-18T16:00:27.275Z,19.77
2023-11-18T16:03:02.048Z,19.33
2023-11-18T16:05:40.972Z,22.73
2023-11-18T16:08:11.463Z,27.35
2023-11-18T16:10:44.823Z,29.42
2023-11-18T16:13:14.735Z,20.13
2023-11-18T16:15:47.375Z,20.85
2023-11-18T16:18:17.214Z,21.63
2023-11-18T16:20:49.920Z,20.77
2023-11-18T16:23:19.764Z,21.92
2023-11-18T16:25:48.949Z,26.67
2023-11-18T16:28:18.305Z,24.67
2023-11-18T16:30:48.421Z,22.67
2023-11-18T16:33:20.638Z,26.00
2023-11-18T16:35:54.730Z,29.70
2023-11-18T16:38:26.935Z,28.70
2023-11-18T16:40:56.062Z,27.60
2023-11-18T16:43:25.162Z,26.13
2023-11-18T16:45:54.162Z,26.75
2023-11-18T16:48:23.393Z,28.20
2023-11-18T16:50:55.104Z,23.48
2023-11-18T16:53:25.351Z,30.00
2023-11-18T16:55:54.494Z,25.08
2023-11-18T16:58:23.806Z,24.60
2023-11-18T17:00:54.185Z,23.50
2023-11-18T17:03:26.326Z,22.83
2023-11-18T17:05:56.967Z,21.15
2023-11-18T17:08:26.533Z,22.23
2023-11-18T17:10:55.625Z,21.88
2023-11-18T17:13:26.876Z,22.15
2023-11-18T17:15:55.772Z,18.27
2023-11-18T17:18:24.922Z,16.98
2023-11-18T17:20:54.386Z,16.50
2023-11-18T17:23:26.324Z,18.50
2023-11-18T17:25:57.212Z,17.55
2023-11-18T17:28:28.747Z,16.90
2023-11-18T17:30:58.063Z,19.00
2023-11-18T17:33:31.153Z,18.02
2023-11-18T17:36:03.173Z,17.70
2023-11-18T17:38:34.454Z,16.10
2023-11-18T17:41:03.472Z,16.80
2023-11-18T17:43:34.086Z,33.83
2023-11-18T17:46:03.144Z,27.98
2023-11-18T17:48:34.996Z,19.98
2023-11-18T17:51:04.023Z,18.38
2023-11-18T17:53:36.041Z,18.73
2023-11-18T17:56:06.785Z,20.50
2023-11-18T17:58:37.065Z,21.38
2023-11-18T18:01:23.907Z,19.48
2023-11-18T18:04:05.278Z,17.15
2023-11-18T18:06:38.575Z,20.67
2023-11-18T18:09:18.067Z,22.55
2023-11-18T18:11:47.021Z,21.15
2023-11-18T18:14:22.738Z,24.88
2023-11-18T18:16:51.745Z,22.92
2023-11-18T18:19:28.165Z,24.27
2023-11-18T18:22:09.191Z,28.48
2023-11-18T18:24:48.234Z,26.08
2023-11-18T18:27:18.280Z,24.38
2023-11-18T18:29:48.420Z,24.52
2023-11-18T18:32:19.974Z,27.85
2023-11-18T18:34:49.209Z,38.30
2023-11-18T18:37:18.482Z,21.23
2023-11-18T18:39:54.192Z,21.70
2023-11-18T18:42:23.249Z,21.08
2023-11-18T18:44:55.755Z,21.92
2023-11-18T18:47:27.862Z,21.13
2023-11-18T18:50:00.254Z,21.33
2023-11-18T18:52:29.738Z,25.83
2023-11-18T18:55:00.609Z,23.20
2023-11-18T18:57:29.616Z,21.75
2023-11-18T19:00:05.867Z,22.27
2023-11-18T19:02:35.699Z,30.02
2023-11-18T19:05:06.039Z,29.13
2023-11-18T19:07:40.997Z,24.70
2023-11-18T19:10:12.913Z,22.23
2023-11-18T19:12:43.641Z,22.65
2023-11-18T19:15:18.377Z,20.55
2023-11-18T19:17:51.450Z,21.63
2023-11-18T19:20:27.805Z,18.65
2023-11-18T19:23:06.127Z,18.88
2023-11-18T19:25:48.163Z,18.73
2023-11-18T19:28:20.744Z,18.60
2023-11-18T19:30:50.222Z,21.02
2023-11-18T19:33:20.713Z,20.67
2023-11-18T19:35:56.009Z,19.05
2023-11-18T19:38:25.015Z,21.17
2023-11-18T19:40:56.300Z,18.48
2023-11-18T19:43:30.117Z,21.85
2023-11-18T19:46:00.978Z,22.40
2023-11-18T19:48:48.348Z,22.20
2023-11-18T19:51:30.631Z,21.95
2023-11-18T19:54:03.102Z,23.13
2023-11-18T19:56:39.102Z,20.23
2023-11-18T19:59:10.690Z,20.73
2023-11-18T20:01:40.355Z,18.90
2023-11-18T20:04:09.433Z,19.77
2023-11-18T20:06:39.193Z,20.08
2023-11-18T20:09:09.480Z,19.08
2023-11-18T20:11:50.128Z,21.92
2023-11-18T20:14:21.748Z,18.55
2023-11-18T20:16:53.154Z,19.58
2023-11-18T20:19:26.121Z,20.85
2023-11-18T20:21:55.686Z,21.63
2023-11-18T20:24:28.311Z,22.33
2023-11-18T20:27:02.954Z,18.35
2023-11-18T20:29:37.133Z,17.48
2023-11-18T20:32:09.407Z,17.25
2023-11-18T20:34:38.938Z,17.83
2023-11-18T20:37:13.730Z,18.17
2023-11-18T20:39:45.396Z,18.55
2023-11-18T20:42:44.945Z,20.30
2023-11-18T20:45:15.576Z,19.80
2023-11-18T20:47:50.313Z,16.88
2023-11-18T20:50:19.673Z,17.60
2023-11-18T20:58:03.492Z,15.95
2023-11-18T21:00:37.301Z,20.27
2023-11-18T21:03:08.248Z,16.08
2023-11-18T21:05:47.351Z,17.77
2023-11-18T21:08:17.752Z,79.47
2023-11-18T21:10:50.224Z,31.23
2023-11-18T21:13:22.141Z,53.38
2023-11-18T21:15:51.872Z,48.67
2023-11-18T21:18:24.349Z,69.97
2023-11-18T21:20:55.527Z,48.15
2023-11-18T21:23:24.977Z,21.23
2023-11-18T21:25:54.570Z,28.80
2023-11-18T21:28:26.642Z,22.50
2023-11-18T21:30:55.752Z,45.22
2023-11-18T21:33:25.119Z,89.68
2023-11-18T21:35:54.291Z,50.47
2023-11-18T21:38:24.293Z,58.05
2023-11-18T21:40:56.363Z,72.43
2023-11-18T21:43:30.252Z,28.75
2023-11-18T21:45:59.605Z,26.00
2023-11-18T21:48:32.779Z,36.03
2023-11-18T21:51:01.643Z,30.95
2023-11-18T21:53:32.803Z,40.42
2023-11-18T21:56:02.923Z,39.58
2023-11-18T21:58:33.696Z,31.63
2023-11-18T22:01:02.913Z,29.83
2023-11-18T22:03:32.779Z,24.88
2023-11-18T22:06:02.057Z,26.02
2023-11-18T22:08:31.023Z,21.20
2023-11-18T22:11:02.133Z,22.20
2023-11-18T22:13:33.195Z,29.48
2023-11-18T22:16:05.278Z,31.45
2023-11-18T22:18:39.598Z,27.13
2023-11-18T22:21:13.371Z,26.10
2023-11-18T22:23:49.770Z,22.90
2023-11-18T22:26:19.684Z,21.80
2023-11-18T22:28:52.959Z,25.65
2023-11-18T22:31:24.190Z,19.45
2023-11-18T22:34:11.053Z,20.00
2023-11-18T22:36:46.532Z,31.83
2023-11-18T22:39:24.104Z,30.42
2023-11-18T22:41:53.204Z,19.13
2023-11-18T22:44:27.500Z,21.48
2023-11-18T22:46:56.905Z,22.58
2023-11-18T22:49:47.263Z,18.33
2023-11-18T22:52:18.380Z,20.38
2023-11-18T22:54:57.793Z,19.63
2023-11-18T22:57:27.710Z,20.20
2023-11-18T23:00:01.925Z,22.48
2023-11-18T23:02:33.005Z,19.17
2023-11-18T23:05:09.770Z,25.08
2023-11-18T23:07:46.212Z,19.42
2023-11-18T23:10:16.492Z,22.42
2023-11-18T23:12:46.092Z,16.30
2023-11-18T23:15:18.217Z,27.02
2023-11-18T23:17:47.487Z,20.67
2023-11-18T23:20:16.442Z,27.15
2023-11-18T23:22:45.384Z,27.77
2023-11-18T23:25:14.432Z,24.83
2023-11-18T23:27:45.764Z,81.05
2023-11-18T23:30:22.227Z,32.47
2023-11-18T23:32:51.656Z,49.53
2023-11-18T23:35:24.056Z,34.30
2023-11-18T23:37:53.638Z,35.33
2023-11-18T23:40:24.961Z,36.63
2023-11-18T23:42:56.426Z,27.95
2023-11-18T23:45:27.114Z,74.45
2023-11-18T23:47:59.093Z,37.72
2023-11-18T23:50:32.853Z,30.17
2023-11-18T23:53:02.308Z,34.30
2023-11-18T23:55:33.268Z,34.70
2023-11-18T23:58:02.457Z,23.20
